Terminal Aerodrome Forecast
Issued by NWS

Home | Current Version | Previous Version | Text Only | Print | Product List | Glossary On
Versions: 1 2 3 4 5 6 7 8 9 10 11
000
FTUS42 TJSJ 270500
TAFJMZ
TAF
TJMZ 270520Z 2706/2806 07006KT P6SM FEW030
     FM271430 28008KT P6SM SCT040 PROB30 2718/2722 VRB12G24KT -SHRA
      BKN030
     FM272300 07008KT P6SM FEW040
      AMD NOT SKED TIL 271500=

USA.gov is the U.S. government's official web portal to all federal, state and local government web resources and services.